createdAt,value
2023-03-23T15:58:45.245Z,100391.31
2023-03-23T16:03:51.678Z,100382.25
2023-03-23T16:08:57.273Z,100380.75
2023-03-23T16:14:01.781Z,100371.78
2023-03-23T16:19:07.387Z,100389.69
2023-03-23T16:24:11.876Z,100386.38
2023-03-23T16:29:29.058Z,100378.84
2023-03-23T16:34:42.053Z,100374.66
2023-03-23T16:39:46.004Z,100380.69
2023-03-23T16:44:51.582Z,100361.34
2023-03-23T16:49:55.571Z,100368.66
2023-03-23T16:54:59.805Z,100366.13
2023-03-23T17:00:11.755Z,100365.53
2023-03-23T17:05:16.597Z,100372.53
2023-03-23T17:10:20.471Z,100359.13
2023-03-23T17:15:26.318Z,100358.97
2023-03-23T17:20:31.012Z,100353.19
2023-03-23T17:25:35.081Z,100364.41
2023-03-23T17:30:42.506Z,100343.09
2023-03-23T17:35:48.082Z,100305.84
2023-03-23T17:41:04.968Z,100311.88
2023-03-23T17:46:09.972Z,100321.16
2023-03-23T17:51:14.115Z,100310.19
2023-03-23T17:56:18.585Z,100317.91
2023-03-23T18:01:22.498Z,100319.66
2023-03-23T18:06:26.690Z,100301.66
2023-03-23T18:11:31.044Z,100292.47
2023-03-23T18:16:35.155Z,100303.25
2023-03-23T18:21:40.023Z,100300.56
2023-03-23T18:26:43.976Z,100286.31
2023-03-23T18:31:48.112Z,100309.25
2023-03-23T18:36:52.543Z,100308.41
2023-03-23T18:41:56.543Z,100312.59
2023-03-23T18:47:00.464Z,100285.53
2023-03-23T18:52:05.041Z,100285.47
2023-03-23T18:57:09.134Z,100317.03
2023-03-23T19:02:14.579Z,100308.59
2023-03-23T19:07:19.121Z,100312.94
2023-03-23T19:12:24.099Z,100317.31
2023-03-23T19:17:28.201Z,100271.88
2023-03-23T19:22:32.417Z,100312.09
2023-03-23T19:27:53.330Z,100330.63
2023-03-23T19:33:01.823Z,100307.81
2023-03-23T19:38:05.771Z,100336.53
2023-03-23T19:43:10.194Z,100311.88
2023-03-23T19:48:14.149Z,100325.13
2023-03-23T19:53:19.373Z,100330.22
2023-03-23T19:58:23.579Z,100324.34
2023-03-23T20:03:27.800Z,100285.16
2023-03-23T20:08:32.298Z,100322.84
2023-03-23T20:13:36.979Z,100332.34
2023-03-23T20:18:41.179Z,100335.75
2023-03-23T20:23:46.054Z,100341.91
2023-03-23T20:28:50.021Z,100338.50
2023-03-23T20:34:03.737Z,100335.09
2023-03-23T20:39:12.837Z,100331.97
2023-03-23T20:44:16.752Z,100341.13
2023-03-23T20:49:21.543Z,100358.34
2023-03-23T20:54:25.567Z,100333.09
2023-03-23T20:59:29.752Z,100358.75
2023-03-23T21:04:33.607Z,100361.16
2023-03-23T21:09:38.272Z,100373.22
2023-03-23T21:14:42.217Z,100362.38
2023-03-23T21:19:46.363Z,100384.41
2023-03-23T21:24:53.851Z,100365.91
2023-03-23T21:30:00.830Z,100382.13
2023-03-23T21:35:05.555Z,100402.53
2023-03-23T21:40:15.049Z,100406.88
2023-03-23T21:45:21.817Z,100407.78
2023-03-23T21:50:25.819Z,100402.94
2023-03-23T21:55:30.470Z,100420.66
2023-03-23T22:00:34.571Z,100419.19
2023-03-23T22:05:41.373Z,100437.69
2023-03-23T22:11:00.972Z,100429.25
2023-03-23T22:16:08.863Z,100439.59
2023-03-23T22:21:14.637Z,100443.88
2023-03-23T22:26:19.328Z,100450.84
2023-03-23T22:31:27.409Z,100458.66
2023-03-23T22:36:33.811Z,100462.13
2023-03-23T22:41:41.702Z,100479.19
2023-03-23T22:46:46.784Z,100465.50
2023-03-23T22:51:51.100Z,100452.09
2023-03-23T22:56:55.219Z,100484.53
2023-03-23T23:01:59.242Z,100471.03
2023-03-23T23:07:12.566Z,100479.59
2023-03-23T23:12:19.064Z,100489.84
2023-03-23T23:17:22.930Z,100490.63
2023-03-23T23:22:27.202Z,100494.88
2023-03-23T23:27:32.235Z,100507.63
2023-03-23T23:32:37.048Z,100464.88
2023-03-23T23:37:41.181Z,100520.38
2023-03-23T23:42:50.157Z,100524.63
2023-03-23T23:47:54.278Z,100516.97
2023-03-23T23:52:59.708Z,100535.63
2023-03-23T23:58:03.571Z,100540.75
